Terminal Aerodrome Forecast
Issued by NWS Twin Cities, MN

Home | Current Version | Previous Version | Text Only | Print | Product List | Glossary Off
Versions: 1 2 3 4 5 6 7 8 9 10 11 12 13 14 15 16 17 18 19 20 21 22 23 24 25 26

500
FTUS43 KMPX 120520
TAFMSP
TAF
KMSP 120520Z 1206/1312 25007KT P6SM -SN OVC030
     FM120700 31008KT P6SM OVC035
     FM121000 32013KT P6SM SCT030
     FM121500 32016G23KT P6SM FEW040 SCT250
     FM130000 31009KT P6SM SKC=

USA.gov is the U.S. government's official web portal to all federal, state and local government web resources and services.